HBJFA EKCH-ESPA
Flight info
| Callsign | HBJFA |
|---|---|
| Flight time | N/A |
| Altitude | 41000 |
| Route | KEMAX DCT ELPAX DCT GIMLO DCT TINKA DCT AKVOW DCT RIKPA DCT DEDIT DCT KETEL |
| Aircraft | CL60/M-SBDE1E2E3FGHIJ1J4J5J7M3RWXYZ/LB1V1D1 |
Departure
| Time | 2026-04-30 22:38 |
|---|---|
| Airport | Copenhagen Kastrup Airport (EKCH) |
Arrival
| Time | N/A |
|---|---|
| Airport | Luleå Airport (ESPA) |
| Time | Latitude | Longitude | Altitude | Speed | Heading |
|---|---|---|---|---|---|
| 2026-04-30 22:11 | 55.62835 | 12.63237 | 18 ft | 0 kts | 7° |
| 2026-04-30 22:25 | 55.62836 | 12.63237 | 18 ft | 0 kts | 7° |
| 2026-04-30 22:26 | 55.62813 | 12.63232 | 18 ft | 2 kts | 7° |
| 2026-04-30 22:26 | 55.62798 | 12.63229 | 18 ft | 2 kts | 7° |
| 2026-04-30 22:26 | 55.62783 | 12.63226 | 18 ft | 2 kts | 7° |
| 2026-04-30 22:27 | 55.62774 | 12.63224 | 18 ft | 1 kts | 5° |
| 2026-04-30 22:27 | 55.62761 | 12.63232 | 18 ft | 2 kts | 316° |
| 2026-04-30 22:27 | 55.62757 | 12.63241 | 18 ft | 0 kts | 304° |
| 2026-04-30 22:28 | 55.62757 | 12.63240 | 17 ft | 0 kts | 304° |
| 2026-04-30 22:32 | 55.62791 | 12.63152 | 18 ft | 14 kts | 303° |
| 2026-04-30 22:33 | 55.62781 | 12.63022 | 20 ft | 5 kts | 215° |
| 2026-04-30 22:33 | 55.62736 | 12.62968 | 21 ft | 0 kts | 205° |
| 2026-04-30 22:34 | 55.62561 | 12.63521 | 17 ft | 32 kts | 123° |
| 2026-04-30 22:35 | 55.62316 | 12.64181 | 14 ft | 13 kts | 124° |
| 2026-04-30 22:36 | 55.62110 | 12.64271 | 14 ft | 19 kts | 205° |
| 2026-04-30 22:36 | 55.61973 | 12.64155 | 18 ft | 21 kts | 205° |
| 2026-04-30 22:37 | 55.61684 | 12.64089 | 19 ft | 19 kts | 177° |
| 2026-04-30 22:37 | 55.61607 | 12.64046 | 20 ft | 11 kts | 220° |
| 2026-04-30 22:37 | 55.60528 | 12.62370 | 410 ft | 175 kts | 226° |
| 2026-04-30 22:38 | 55.58691 | 12.59430 | 2285 ft | 162 kts | 225° |
| 2026-04-30 22:38 | 55.56884 | 12.56640 | 3212 ft | 205 kts | 223° |
| 2026-04-30 22:39 | 55.55654 | 12.55165 | 4098 ft | 230 kts | 203° |
| 2026-04-30 22:39 | 55.50901 | 12.52335 | 7454 ft | 264 kts | 199° |
| 2026-04-30 22:40 | 55.45371 | 12.50022 | 11470 ft | 287 kts | 170° |
| 2026-04-30 22:41 | 55.41273 | 12.56343 | 14751 ft | 297 kts | 104° |
| 2026-04-30 22:41 | 55.40467 | 12.63795 | 16449 ft | 322 kts | 82° |
| 2026-04-30 22:42 | 55.46521 | 12.73480 | 20481 ft | 335 kts | 14° |
| 2026-04-30 22:43 | 55.51100 | 12.75306 | 22337 ft | 344 kts | 14° |
| 2026-04-30 22:43 | 55.55242 | 12.76961 | 23841 ft | 353 kts | 14° |
| 2026-04-30 22:44 | 55.57156 | 12.77725 | 24519 ft | 357 kts | 14° |
| 2026-04-30 22:45 | 55.66783 | 12.82901 | 27565 ft | 374 kts | 36° |
| 2026-04-30 22:45 | 55.68697 | 12.85496 | 28127 ft | 379 kts | 38° |
| 2026-04-30 22:46 | 55.70599 | 12.88091 | 28699 ft | 383 kts | 38° |
| 2026-04-30 22:47 | 55.79228 | 12.99830 | 31067 ft | 396 kts | 37° |
| 2026-04-30 22:47 | 55.83721 | 13.05948 | 31984 ft | 404 kts | 37° |
| 2026-04-30 22:48 | 55.88251 | 13.12127 | 32799 ft | 411 kts | 37° |
| 2026-04-30 22:49 | 55.95170 | 13.21586 | 33864 ft | 420 kts | 37° |
| 2026-04-30 22:49 | 56.02190 | 13.31220 | 35107 ft | 421 kts | 36° |
| 2026-04-30 22:50 | 56.11407 | 13.43916 | 37044 ft | 413 kts | 35° |
| 2026-04-30 22:51 | 56.15291 | 13.47963 | 37688 ft | 410 kts | 25° |